Time;durP1;ratioP1;P1;durP2;ratioP2;P2;SDS_P1;SDS_P2;PMS_P1;PMS_P2;Temp;Humidity;BMP_temperature;BMP_pressure;BME280_temperature;BME280_humidity;BME280_pressure;Samples;Min_cycle;Max_cycle;Signal;HPM_P1;HPM_P2
2023/02/10 00:02:20;;;;;;;50.05;19.95;;;;;;;;;;4973263;28;20058;-68
2023/02/10 00:04:45;;;;;;;50.90;20.77;;;;;;;;;;4971186;28;20031;-68
2023/02/10 00:07:10;;;;;;;54.35;23.15;;;;;;;;;;4971725;28;20448;-68
2023/02/10 00:09:35;;;;;;;57.13;22.93;;;;;;;;;;4974137;28;20023;-68
2023/02/10 00:12:01;;;;;;;57.37;21.97;;;;;;;;;;4970257;28;20399;-68
2023/02/10 00:14:27;;;;;;;40.58;17.35;;;;;;;;;;4971607;28;20294;-68
2023/02/10 00:16:53;;;;;;;64.53;23.00;;;;;;;;;;4971073;28;20027;-68
2023/02/10 00:19:19;;;;;;;50.95;21.27;;;;;;;;;;4974335;28;20007;-68
2023/02/10 00:21:44;;;;;;;70.32;24.00;;;;;;;;;;4969435;28;20038;-68
2023/02/10 00:24:09;;;;;;;60.30;23.10;;;;;;;;;;4972028;28;20023;-68
2023/02/10 00:26:34;;;;;;;55.70;22.65;;;;;;;;;;4964480;28;20289;-68
2023/02/10 00:29:00;;;;;;;50.40;20.17;;;;;;;;;;4968075;28;20031;-68
2023/02/10 00:31:25;;;;;;;59.10;21.47;;;;;;;;;;4969507;28;20698;-68
2023/02/10 00:33:50;;;;;;;53.30;22.55;;;;;;;;;;4973147;28;20282;-69
2023/02/10 00:36:15;;;;;;;56.13;22.50;;;;;;;;;;4969058;28;20030;-68
2023/02/10 00:38:41;;;;;;;38.92;15.90;;;;;;;;;;4970493;28;20275;-68
2023/02/10 00:41:11;;;;;;;59.20;23.00;;;;;;;;;;4969392;28;20113;-68
2023/02/10 00:43:39;;;;;;;61.45;24.08;;;;;;;;;;4968967;28;20031;-68
2023/02/10 00:46:04;;;;;;;66.35;22.95;;;;;;;;;;4971481;28;20027;-68
2023/02/10 00:48:29;;;;;;;62.90;23.58;;;;;;;;;;4972966;28;20463;-68
2023/02/10 00:50:54;;;;;;;60.67;24.60;;;;;;;;;;4970621;28;20075;-68
2023/02/10 00:53:19;;;;;;;57.67;25.58;;;;;;;;;;4972655;28;20423;-68
2023/02/10 00:55:45;;;;;;;56.42;24.15;;;;;;;;;;4967603;28;20039;-68
2023/02/10 00:58:10;;;;;;;57.47;23.27;;;;;;;;;;4971399;28;20097;-68
2023/02/10 01:00:35;;;;;;;61.70;22.53;;;;;;;;;;4972374;28;20033;-68
2023/02/10 01:03:00;;;;;;;54.35;23.48;;;;;;;;;;4971333;28;20778;-68
2023/02/10 01:05:25;;;;;;;65.47;24.43;;;;;;;;;;4966549;28;20093;-68
2023/02/10 01:07:52;;;;;;;57.33;23.77;;;;;;;;;;4970283;28;20278;-68
2023/02/10 01:10:17;;;;;;;57.53;22.20;;;;;;;;;;4952519;28;20019;-69
2023/02/10 01:12:42;;;;;;;59.13;18.98;;;;;;;;;;4969857;28;20104;-69
2023/02/10 01:15:08;;;;;;;59.40;22.23;;;;;;;;;;4968455;28;20015;-69
2023/02/10 01:17:33;;;;;;;63.15;24.75;;;;;;;;;;4969200;28;20475;-69
2023/02/10 01:19:58;;;;;;;62.30;23.15;;;;;;;;;;4971184;28;20031;-69
2023/02/10 01:22:23;;;;;;;63.80;24.75;;;;;;;;;;4971028;28;20121;-69
2023/02/10 01:24:48;;;;;;;61.22;25.95;;;;;;;;;;4967952;28;20034;-69
2023/02/10 01:27:14;;;;;;;64.28;24.25;;;;;;;;;;4969947;28;20022;-69
2023/02/10 01:29:39;;;;;;;53.72;22.85;;;;;;;;;;4971830;28;20034;-69
2023/02/10 01:32:04;;;;;;;56.90;23.97;;;;;;;;;;4968110;28;20054;-69
2023/02/10 01:34:29;;;;;;;53.65;22.33;;;;;;;;;;4968348;28;20279;-69
2023/02/10 01:36:54;;;;;;;65.03;27.40;;;;;;;;;;4971723;28;20027;-69
2023/02/10 01:39:19;;;;;;;64.13;25.00;;;;;;;;;;4969495;28;20348;-69
2023/02/10 01:41:45;;;;;;;60.47;24.25;;;;;;;;;;4968678;28;20022;-69
2023/02/10 01:44:19;;;;;;;66.73;23.13;;;;;;;;;;4971079;28;20025;-69
2023/02/10 01:46:45;;;;;;;59.90;22.50;;;;;;;;;;4967415;28;20280;-69
2023/02/10 01:49:14;;;;;;;59.20;24.85;;;;;;;;;;4971279;28;20019;-69
2023/02/10 01:51:52;;;;;;;67.18;24.08;;;;;;;;;;4969281;28;20027;-69
2023/02/10 01:54:19;;;;;;;70.65;25.90;;;;;;;;;;4966145;28;20022;-69
2023/02/10 01:56:45;;;;;;;62.97;22.77;;;;;;;;;;4967767;28;20506;-69
2023/02/10 01:59:11;;;;;;;61.75;26.40;;;;;;;;;;4970237;28;20111;-69
2023/02/10 02:01:37;;;;;;;64.97;25.70;;;;;;;;;;4968479;28;20039;-69
2023/02/10 02:04:02;;;;;;;59.97;24.75;;;;;;;;;;4997631;23;20085;-69
2023/02/10 02:06:27;;;;;;;69.93;26.30;;;;;;;;;;4971357;28;20298;-69
2023/02/10 02:08:53;;;;;;;58.22;25.75;;;;;;;;;;4986860;28;20064;-70
2023/02/10 02:11:42;;;;;;;69.70;26.02;;;;;;;;;;4990830;28;20045;-69
2023/02/10 02:14:10;;;;;;;56.78;25.27;;;;;;;;;;4986449;28;20022;-69
2023/02/10 02:16:38;;;;;;;63.10;27.35;;;;;;;;;;4988965;28;20061;-69
2023/02/10 02:19:21;;;;;;;64.38;21.42;;;;;;;;;;4987506;28;20029;-69
2023/02/10 02:22:00;;;;;;;27.95;11.55;;;;;;;;;;4989094;28;20487;-70
2023/02/10 02:24:48;;;;;;;67.50;26.02;;;;;;;;;;4983244;28;20026;-69
2023/02/10 02:27:23;;;;;;;63.40;27.33;;;;;;;;;;4988289;28;20027;-69
2023/02/10 02:29:54;;;;;;;54.80;24.50;;;;;;;;;;4988495;28;20101;-69
2023/02/10 02:32:24;;;;;;;59.97;26.10;;;;;;;;;;4983940;28;20049;-69
2023/02/10 02:34:57;;;;;;;57.30;26.90;;;;;;;;;;4988590;28;20021;-69
2023/02/10 02:37:26;;;;;;;60.03;25.85;;;;;;;;;;4988527;28;20029;-69
2023/02/10 02:39:52;;;;;;;69.05;26.23;;;;;;;;;;4987553;28;20101;-69
2023/02/10 02:42:24;;;;;;;66.22;26.65;;;;;;;;;;4988523;28;20165;-69
2023/02/10 02:44:59;;;;;;;56.75;24.05;;;;;;;;;;4969972;28;20467;-69
2023/02/10 02:47:29;;;;;;;68.60;25.92;;;;;;;;;;4989081;28;20034;-70
2023/02/10 02:50:20;;;;;;;61.75;22.05;;;;;;;;;;4988102;28;20022;-69
2023/02/10 02:52:45;;;;;;;65.38;25.27;;;;;;;;;;4985785;28;20019;-68
2023/02/10 02:55:17;;;;;;;66.27;27.53;;;;;;;;;;4986969;28;20050;-68
2023/02/10 02:57:43;;;;;;;61.47;25.90;;;;;;;;;;4983956;28;20372;-68
2023/02/10 03:00:29;;;;;;;65.67;27.57;;;;;;;;;;4986362;28;20514;-68
2023/02/10 03:02:54;;;;;;;64.38;24.88;;;;;;;;;;4988336;28;20765;-68
2023/02/10 03:05:21;;;;;;;62.22;24.13;;;;;;;;;;4987677;28;20034;-69
2023/02/10 03:07:46;;;;;;;58.03;22.65;;;;;;;;;;4990622;28;20027;-69
2023/02/10 03:10:11;;;;;;;62.70;27.10;;;;;;;;;;4982501;28;20037;-69
2023/02/10 03:12:36;;;;;;;55.95;24.88;;;;;;;;;;4987155;28;20088;-69
2023/02/10 03:15:02;;;;;;;67.50;26.08;;;;;;;;;;4983833;28;20736;-69
2023/02/10 03:17:27;;;;;;;60.90;25.38;;;;;;;;;;4983415;28;20034;-69
2023/02/10 03:19:52;;;;;;;55.35;24.35;;;;;;;;;;4968509;28;20078;-70
2023/02/10 03:22:17;;;;;;;58.00;25.42;;;;;;;;;;4988193;28;20479;-69
2023/02/10 03:24:42;;;;;;;53.50;25.95;;;;;;;;;;4983738;28;20046;-69
2023/02/10 03:27:07;;;;;;;65.03;26.37;;;;;;;;;;4989232;28;20067;-69
2023/02/10 03:29:33;;;;;;;59.47;25.50;;;;;;;;;;4989852;28;20949;-69
2023/02/10 03:32:01;;;;;;;59.22;25.05;;;;;;;;;;4987897;28;20273;-70
2023/02/10 03:34:26;;;;;;;60.88;26.08;;;;;;;;;;4988376;28;20101;-69
2023/02/10 03:36:51;;;;;;;57.53;24.98;;;;;;;;;;4984589;28;20445;-70
2023/02/10 03:39:16;;;;;;;58.60;25.27;;;;;;;;;;4985545;28;20108;-69
2023/02/10 03:41:42;;;;;;;51.77;23.07;;;;;;;;;;4986929;28;20368;-70
2023/02/10 03:44:07;;;;;;;64.63;26.38;;;;;;;;;;4988148;28;20327;-70
2023/02/10 03:46:32;;;;;;;64.40;24.00;;;;;;;;;;4987869;28;20026;-69
2023/02/10 03:48:58;;;;;;;59.25;24.90;;;;;;;;;;4989444;28;20372;-69
2023/02/10 03:51:23;;;;;;;54.78;17.98;;;;;;;;;;4986801;28;20050;-69
2023/02/10 03:53:48;;;;;;;54.85;23.70;;;;;;;;;;4984085;28;20113;-70
2023/02/10 03:56:14;;;;;;;45.08;15.45;;;;;;;;;;4987743;28;20410;-70
2023/02/10 03:58:39;;;;;;;58.85;20.42;;;;;;;;;;4987283;28;20114;-69
2023/02/10 04:01:08;;;;;;;64.43;25.23;;;;;;;;;;4988789;28;20030;-69
2023/02/10 04:03:33;;;;;;;67.80;24.85;;;;;;;;;;4984228;28;20316;-69
2023/02/10 04:05:58;;;;;;;52.40;19.03;;;;;;;;;;4986297;28;20050;-69
2023/02/10 04:08:23;;;;;;;60.58;22.10;;;;;;;;;;4986785;28;20304;-69
2023/02/10 04:10:49;;;;;;;45.83;18.98;;;;;;;;;;4978347;28;20094;-70
2023/02/10 04:13:14;;;;;;;62.47;25.50;;;;;;;;;;4979752;28;20413;-69
2023/02/10 04:15:39;;;;;;;72.63;26.83;;;;;;;;;;4989857;28;20276;-69
2023/02/10 04:18:04;;;;;;;79.95;28.45;;;;;;;;;;4990133;28;21822;-69
2023/02/10 04:20:29;;;;;;;71.25;27.65;;;;;;;;;;4985041;28;20027;-69
2023/02/10 04:22:55;;;;;;;64.55;26.85;;;;;;;;;;4982643;28;20094;-69
2023/02/10 04:25:20;;;;;;;72.60;26.98;;;;;;;;;;4981108;28;20030;-69
2023/02/10 04:27:45;;;;;;;65.47;28.50;;;;;;;;;;4982026;28;20026;-69
2023/02/10 04:30:10;;;;;;;63.45;28.33;;;;;;;;;;4965287;28;20022;-69
2023/02/10 04:32:35;;;;;;;72.57;28.73;;;;;;;;;;4983494;28;20109;-69
2023/02/10 04:35:01;;;;;;;59.22;26.40;;;;;;;;;;4984963;28;21792;-69
2023/02/10 04:37:26;;;;;;;67.30;26.20;;;;;;;;;;4987736;28;20104;-69
2023/02/10 04:39:52;;;;;;;63.92;26.38;;;;;;;;;;4982124;28;20037;-69
2023/02/10 04:42:17;;;;;;;61.85;26.48;;;;;;;;;;4978874;28;20026;-70
2023/02/10 04:44:42;;;;;;;63.30;26.25;;;;;;;;;;4986249;28;20105;-70
2023/02/10 04:47:07;;;;;;;65.97;26.70;;;;;;;;;;4986295;28;20392;-69
2023/02/10 04:49:32;;;;;;;65.60;27.93;;;;;;;;;;4987716;28;20281;-69
2023/02/10 04:51:57;;;;;;;64.93;26.08;;;;;;;;;;4987607;28;20277;-70
2023/02/10 04:54:23;;;;;;;64.18;25.08;;;;;;;;;;4980966;28;20038;-69
2023/02/10 04:56:48;;;;;;;65.93;25.33;;;;;;;;;;4978379;28;20029;-69
2023/02/10 04:59:13;;;;;;;67.47;27.58;;;;;;;;;;4984047;28;20014;-69
2023/02/10 05:01:38;;;;;;;76.15;27.58;;;;;;;;;;4980854;28;21260;-69
2023/02/10 05:04:03;;;;;;;62.15;25.65;;;;;;;;;;4982911;28;20042;-69
2023/02/10 05:06:29;;;;;;;53.10;24.63;;;;;;;;;;4986180;28;20038;-69
2023/02/10 05:08:54;;;;;;;66.38;25.73;;;;;;;;;;4987010;28;20126;-69
2023/02/10 05:11:19;;;;;;;72.13;26.23;;;;;;;;;;4981324;28;20026;-69
2023/02/10 05:13:44;;;;;;;63.00;26.50;;;;;;;;;;4980520;28;20698;-69
2023/02/10 05:16:10;;;;;;;72.40;27.52;;;;;;;;;;4982364;28;20435;-69
2023/02/10 05:18:36;;;;;;;69.07;26.52;;;;;;;;;;4981812;28;20037;-69
2023/02/10 05:21:02;;;;;;;53.40;23.52;;;;;;;;;;4987713;28;20022;-69
2023/02/10 05:23:27;;;;;;;56.47;23.13;;;;;;;;;;4984390;28;20034;-69
2023/02/10 05:25:53;;;;;;;72.22;26.15;;;;;;;;;;4982531;28;20022;-69
2023/02/10 05:28:18;;;;;;;62.42;24.08;;;;;;;;;;4987555;28;20092;-69
2023/02/10 05:30:43;;;;;;;59.67;24.85;;;;;;;;;;4983350;28;20014;-69
2023/02/10 05:33:09;;;;;;;64.82;24.35;;;;;;;;;;4979405;28;20109;-69
2023/02/10 05:35:34;;;;;;;59.58;24.15;;;;;;;;;;4988256;28;20025;-69
2023/02/10 05:38:01;;;;;;;66.63;25.77;;;;;;;;;;4984953;28;20034;-69
2023/02/10 05:40:26;;;;;;;56.75;24.63;;;;;;;;;;4984863;28;20019;-69
2023/02/10 05:42:51;;;;;;;71.55;26.80;;;;;;;;;;4982378;28;20040;-69
2023/02/10 05:45:17;;;;;;;71.53;27.33;;;;;;;;;;4988104;28;20030;-69
2023/02/10 05:47:42;;;;;;;72.27;26.00;;;;;;;;;;4990959;28;20648;-69
2023/02/10 05:50:07;;;;;;;70.20;25.93;;;;;;;;;;4988792;28;20360;-69
2023/02/10 05:52:32;;;;;;;67.30;26.48;;;;;;;;;;4985824;28;20780;-69
2023/02/10 05:54:57;;;;;;;69.60;26.48;;;;;;;;;;4983710;28;20035;-70
2023/02/10 05:57:23;;;;;;;73.10;26.55;;;;;;;;;;4985594;28;20025;-70
2023/02/10 05:59:48;;;;;;;71.83;27.40;;;;;;;;;;4980935;28;20021;-69
2023/02/10 06:02:13;;;;;;;70.77;27.87;;;;;;;;;;4979615;28;20309;-70
2023/02/10 06:04:38;;;;;;;68.57;27.10;;;;;;;;;;4982445;28;20295;-70
2023/02/10 06:07:03;;;;;;;63.80;26.45;;;;;;;;;;4980363;28;20281;-70
2023/02/10 06:09:29;;;;;;;64.43;26.40;;;;;;;;;;4979631;28;20022;-70
2023/02/10 06:11:54;;;;;;;64.57;24.65;;;;;;;;;;4982310;28;20313;-70
2023/02/10 06:14:20;;;;;;;68.63;25.70;;;;;;;;;;4979127;28;20049;-70
2023/02/10 06:16:45;;;;;;;65.60;26.25;;;;;;;;;;4982058;28;20558;-70
2023/02/10 06:19:10;;;;;;;65.10;25.38;;;;;;;;;;4979747;28;20022;-70
2023/02/10 06:21:35;;;;;;;54.15;24.20;;;;;;;;;;4980213;28;20393;-70
2023/02/10 06:24:00;;;;;;;70.00;26.27;;;;;;;;;;4983367;28;20026;-70
2023/02/10 06:26:27;;;;;;;63.90;25.23;;;;;;;;;;4980197;28;20034;-70
2023/02/10 06:28:53;;;;;;;64.03;24.70;;;;;;;;;;4986275;28;20026;-70
2023/02/10 06:31:18;;;;;;;63.30;25.67;;;;;;;;;;4984249;28;21349;-70
2023/02/10 06:33:43;;;;;;;62.00;25.85;;;;;;;;;;4984479;28;20041;-70
2023/02/10 06:36:08;;;;;;;67.47;26.40;;;;;;;;;;4977032;28;20030;-70
2023/02/10 06:38:34;;;;;;;61.60;26.42;;;;;;;;;;4968839;28;20479;-70
2023/02/10 06:40:59;;;;;;;69.20;25.15;;;;;;;;;;4980951;28;20025;-70
2023/02/10 06:43:24;;;;;;;72.13;28.08;;;;;;;;;;4981236;28;20032;-70
2023/02/10 06:45:50;;;;;;;63.55;25.92;;;;;;;;;;4983574;28;20027;-70
2023/02/10 06:48:15;;;;;;;65.15;25.10;;;;;;;;;;4979899;28;20015;-69
2023/02/10 06:50:40;;;;;;;64.13;24.00;;;;;;;;;;4984683;28;20029;-70
2023/02/10 06:53:05;;;;;;;63.30;25.67;;;;;;;;;;4984446;28;20026;-70
2023/02/10 06:55:30;;;;;;;61.35;24.30;;;;;;;;;;4987910;28;20629;-70
2023/02/10 06:57:59;;;;;;;61.75;24.58;;;;;;;;;;4985460;28;20077;-70
2023/02/10 07:00:24;;;;;;;62.55;24.52;;;;;;;;;;4987848;28;20034;-70
2023/02/10 07:02:49;;;;;;;67.93;25.58;;;;;;;;;;4986954;28;20022;-70
2023/02/10 07:05:15;;;;;;;65.23;26.10;;;;;;;;;;4983214;28;20038;-69
2023/02/10 07:07:40;;;;;;;65.32;27.10;;;;;;;;;;4984407;28;20305;-70
2023/02/10 07:10:06;;;;;;;56.53;23.45;;;;;;;;;;4986934;28;20026;-70
2023/02/10 07:12:31;;;;;;;66.80;27.70;;;;;;;;;;4978383;28;20050;-69
2023/02/10 07:14:56;;;;;;;76.80;29.23;;;;;;;;;;4979660;28;20631;-70
2023/02/10 07:17:21;;;;;;;80.78;28.33;;;;;;;;;;4979892;28;20038;-70
2023/02/10 07:19:46;;;;;;;84.90;28.92;;;;;;;;;;4976380;28;20077;-70
2023/02/10 07:22:12;;;;;;;78.73;29.40;;;;;;;;;;4986109;28;20383;-69
2023/02/10 07:24:37;;;;;;;82.97;30.67;;;;;;;;;;4985427;28;20312;-69
2023/02/10 07:27:02;;;;;;;68.15;28.27;;;;;;;;;;4982460;28;20045;-70
2023/02/10 07:29:28;;;;;;;74.05;27.73;;;;;;;;;;4980721;28;20109;-70
2023/02/10 07:31:54;;;;;;;69.68;25.92;;;;;;;;;;4981719;28;21912;-69
2023/02/10 07:34:20;;;;;;;87.32;30.67;;;;;;;;;;4976337;28;20033;-70
2023/02/10 07:36:46;;;;;;;79.32;30.77;;;;;;;;;;4975454;28;20126;-70
2023/02/10 07:39:11;;;;;;;82.10;30.50;;;;;;;;;;4980442;28;20042;-70
2023/02/10 07:41:36;;;;;;;90.05;29.20;;;;;;;;;;4988765;28;20022;-69
2023/02/10 07:44:01;;;;;;;72.75;23.50;;;;;;;;;;4987125;28;20077;-70
2023/02/10 07:46:27;;;;;;;66.35;22.27;;;;;;;;;;4988192;28;20070;-70
2023/02/10 07:48:52;;;;;;;74.80;25.45;;;;;;;;;;4989459;28;20534;-70
2023/02/10 07:51:17;;;;;;;77.70;27.30;;;;;;;;;;4992847;28;20022;-69
2023/02/10 07:53:42;;;;;;;26.98;9.30;;;;;;;;;;4991750;28;20793;-70
2023/02/10 07:56:07;;;;;;;73.57;26.10;;;;;;;;;;4991814;28;20027;-70
2023/02/10 07:58:33;;;;;;;74.77;29.83;;;;;;;;;;4984844;28;20105;-70
2023/02/10 08:00:59;;;;;;;90.18;30.73;;;;;;;;;;4966969;28;20647;-69
2023/02/10 08:03:24;;;;;;;91.05;31.50;;;;;;;;;;4985002;28;20109;-70
2023/02/10 08:05:49;;;;;;;76.07;25.50;;;;;;;;;;5008222;23;20049;-68
2023/02/10 08:08:15;;;;;;;90.03;31.33;;;;;;;;;;4985841;28;20340;-68
2023/02/10 08:10:41;;;;;;;83.75;30.27;;;;;;;;;;4987034;28;20029;-69
2023/02/10 08:13:06;;;;;;;90.53;31.60;;;;;;;;;;4987342;28;20025;-68
2023/02/10 08:15:31;;;;;;;89.72;31.23;;;;;;;;;;4975863;28;20021;-67
2023/02/10 08:17:58;;;;;;;87.80;32.50;;;;;;;;;;4995344;28;20084;-67
2023/02/10 08:20:23;;;;;;;86.53;30.33;;;;;;;;;;4989125;28;20426;-68
2023/02/10 08:22:52;;;;;;;84.40;29.03;;;;;;;;;;4992502;28;20019;-68
2023/02/10 08:25:17;;;;;;;80.90;28.10;;;;;;;;;;4989015;28;20299;-68
2023/02/10 08:27:43;;;;;;;75.03;27.17;;;;;;;;;;4991353;28;20026;-68
2023/02/10 08:30:10;;;;;;;56.63;19.87;;;;;;;;;;4993662;28;20310;-67
2023/02/10 08:32:35;;;;;;;89.80;31.90;;;;;;;;;;4985682;28;20617;-68
2023/02/10 08:35:00;;;;;;;87.73;25.47;;;;;;;;;;4990821;28;20022;-68
2023/02/10 08:37:25;;;;;;;98.57;29.88;;;;;;;;;;4986668;28;20323;-68
2023/02/10 08:39:50;;;;;;;98.95;32.60;;;;;;;;;;4991542;28;20124;-68
2023/02/10 08:42:15;;;;;;;85.07;31.17;;;;;;;;;;4988335;28;20033;-69
2023/02/10 08:44:41;;;;;;;89.40;31.83;;;;;;;;;;4992003;28;20333;-69
2023/02/10 08:47:06;;;;;;;81.90;30.70;;;;;;;;;;4991005;28;20033;-68
2023/02/10 08:49:31;;;;;;;73.72;26.13;;;;;;;;;;4988773;28;20269;-68
2023/02/10 08:51:56;;;;;;;75.50;29.27;;;;;;;;;;4990981;28;20029;-67
2023/02/10 08:54:21;;;;;;;80.25;29.13;;;;;;;;;;4987121;28;20307;-69
2023/02/10 08:56:47;;;;;;;71.75;28.00;;;;;;;;;;4990811;28;20037;-68
2023/02/10 08:59:12;;;;;;;67.82;27.30;;;;;;;;;;4985501;28;20094;-68
2023/02/10 09:01:37;;;;;;;85.75;29.80;;;;;;;;;;4990898;28;20014;-68
2023/02/10 09:04:03;;;;;;;75.72;27.35;;;;;;;;;;4987836;28;20034;-68
2023/02/10 09:06:38;;;;;;;63.45;22.80;;;;;;;;;;4989006;28;20053;-68
2023/02/10 09:09:03;;;;;;;69.55;22.77;;;;;;;;;;4990612;28;20045;-68
2023/02/10 09:11:29;;;;;;;68.00;27.38;;;;;;;;;;4991000;28;20478;-68
2023/02/10 09:13:54;;;;;;;69.57;22.53;;;;;;;;;;4990287;28;20530;-68
2023/02/10 09:16:19;;;;;;;69.03;28.40;;;;;;;;;;4989316;28;20273;-68
2023/02/10 09:18:45;;;;;;;74.35;25.63;;;;;;;;;;4988690;28;20023;-68
2023/02/10 09:21:10;;;;;;;50.03;18.92;;;;;;;;;;4994611;28;20021;-68
2023/02/10 09:23:36;;;;;;;76.30;29.00;;;;;;;;;;4991402;28;20100;-68
2023/02/10 09:26:01;;;;;;;71.18;26.08;;;;;;;;;;4990321;28;20029;-68
2023/02/10 09:28:26;;;;;;;75.22;29.08;;;;;;;;;;4973916;28;20022;-68
2023/02/10 09:30:52;;;;;;;73.63;27.50;;;;;;;;;;4989258;28;20356;-68
2023/02/10 09:33:17;;;;;;;75.40;26.77;;;;;;;;;;4986578;28;20099;-68
2023/02/10 09:35:42;;;;;;;76.75;28.30;;;;;;;;;;4993919;28;20084;-68
2023/02/10 09:38:11;;;;;;;69.85;23.67;;;;;;;;;;4994054;28;20474;-68
2023/02/10 09:40:49;;;;;;;70.88;24.52;;;;;;;;;;4990954;28;20060;-68
2023/02/10 09:43:23;;;;;;;67.22;27.42;;;;;;;;;;4990242;28;20042;-68
2023/02/10 09:45:51;;;;;;;77.20;27.77;;;;;;;;;;4985047;28;20368;-67
2023/02/10 09:48:21;;;;;;;75.85;27.92;;;;;;;;;;4985708;28;20105;-68
2023/02/10 09:50:47;;;;;;;69.78;25.42;;;;;;;;;;4986112;28;20018;-68
2023/02/10 09:53:20;;;;;;;69.50;24.83;;;;;;;;;;4986895;28;20081;-68
2023/02/10 09:55:57;;;;;;;76.07;29.40;;;;;;;;;;4988011;28;20280;-68
2023/02/10 09:58:43;;;;;;;47.10;17.58;;;;;;;;;;4985517;28;20046;-68
2023/02/10 10:01:18;;;;;;;36.45;14.05;;;;;;;;;;4982578;28;20482;-71
2023/02/10 10:03:46;;;;;;;70.90;25.85;;;;;;;;;;4984983;28;20032;-67
2023/02/10 10:06:40;;;;;;;48.40;18.35;;;;;;;;;;4986698;28;20025;-68
2023/02/10 10:09:08;;;;;;;41.50;16.08;;;;;;;;;;4967837;28;20038;-68
2023/02/10 10:11:33;;;;;;;65.55;24.92;;;;;;;;;;4985126;28;20030;-67
2023/02/10 10:13:59;;;;;;;72.37;26.20;;;;;;;;;;4993344;28;20017;-68
2023/02/10 10:16:24;;;;;;;56.90;22.05;;;;;;;;;;4992061;28;20277;-68
2023/02/10 10:18:58;;;;;;;91.38;27.48;;;;;;;;;;4990795;28;20026;-68
2023/02/10 10:21:29;;;;;;;65.72;25.73;;;;;;;;;;4987398;28;20018;-67
2023/02/10 10:23:54;;;;;;;77.43;27.25;;;;;;;;;;4987150;28;20509;-67
2023/02/10 10:26:36;;;;;;;58.45;22.92;;;;;;;;;;4986213;28;20117;-68
2023/02/10 10:29:12;;;;;;;64.05;24.02;;;;;;;;;;4984879;28;20301;-68
2023/02/10 10:31:41;;;;;;;56.85;23.85;;;;;;;;;;4987024;28;20125;-67
2023/02/10 10:34:07;;;;;;;53.85;21.02;;;;;;;;;;4985770;28;20037;-67
2023/02/10 10:36:36;;;;;;;58.83;24.65;;;;;;;;;;4987139;28;20030;-67
2023/02/10 10:39:10;;;;;;;56.13;19.23;;;;;;;;;;4983996;28;20391;-68
2023/02/10 10:41:37;;;;;;;50.05;21.25;;;;;;;;;;4982589;28;20038;-68
2023/02/10 10:44:02;;;;;;;40.67;16.70;;;;;;;;;;4988931;28;20018;-68
2023/02/10 10:46:30;;;;;;;43.35;16.60;;;;;;;;;;4986627;28;20036;-67
2023/02/10 10:48:55;;;;;;;49.38;19.67;;;;;;;;;;4991132;28;20037;-67
2023/02/10 10:51:21;;;;;;;57.90;22.77;;;;;;;;;;4991169;28;20022;-67
2023/02/10 10:53:48;;;;;;;38.92;15.63;;;;;;;;;;4987533;28;20125;-67
2023/02/10 10:56:22;;;;;;;49.30;20.63;;;;;;;;;;4983914;28;20018;-67
2023/02/10 10:58:49;;;;;;;19.27;7.63;;;;;;;;;;4985863;28;20109;-68
2023/02/10 11:01:15;;;;;;;59.75;22.77;;;;;;;;;;4989882;28;20038;-68
2023/02/10 11:03:40;;;;;;;60.25;22.80;;;;;;;;;;4990624;28;20022;-68
2023/02/10 11:06:08;;;;;;;57.37;24.87;;;;;;;;;;4991001;28;20147;-68
2023/02/10 11:08:56;;;;;;;52.88;21.95;;;;;;;;;;4987461;28;20356;-67
2023/02/10 11:11:31;;;;;;;54.15;20.48;;;;;;;;;;4976878;28;20071;-67
2023/02/10 11:13:56;;;;;;;58.03;23.15;;;;;;;;;;4990165;28;20030;-67
2023/02/10 11:16:21;;;;;;;50.45;17.25;;;;;;;;;;4991121;28;20045;-67
2023/02/10 11:18:59;;;;;;;60.60;22.90;;;;;;;;;;4992215;28;20019;-67
2023/02/10 11:21:34;;;;;;;42.10;14.02;;;;;;;;;;4990279;28;20061;-67
2023/02/10 11:23:59;;;;;;;50.05;21.42;;;;;;;;;;4982423;28;20049;-68
2023/02/10 11:26:26;;;;;;;53.30;24.60;;;;;;;;;;4990329;28;20026;-68
2023/02/10 11:28:51;;;;;;;59.10;24.98;;;;;;;;;;4990995;28;20080;-67
2023/02/10 11:31:27;;;;;;;65.43;25.35;;;;;;;;;;4989351;28;20026;-67
2023/02/10 11:33:58;;;;;;;49.78;18.88;;;;;;;;;;4988072;28;20494;-68
2023/02/10 11:36:31;;;;;;;60.40;24.70;;;;;;;;;;4984543;28;20395;-67
2023/02/10 11:39:00;;;;;;;59.78;24.80;;;;;;;;;;4987582;28;20470;-67
2023/02/10 11:41:28;;;;;;;64.20;24.57;;;;;;;;;;4986754;28;20055;-67
2023/02/10 11:43:54;;;;;;;69.07;25.25;;;;;;;;;;4992499;28;20038;-67
2023/02/10 11:46:20;;;;;;;67.83;23.27;;;;;;;;;;4989504;28;20053;-67
2023/02/10 11:48:52;;;;;;;57.80;25.23;;;;;;;;;;4984900;28;20300;-67
2023/02/10 11:51:18;;;;;;;62.80;25.92;;;;;;;;;;4983091;28;20026;-68
2023/02/10 11:53:44;;;;;;;64.35;26.42;;;;;;;;;;4988267;28;20026;-67
2023/02/10 11:56:18;;;;;;;54.55;24.63;;;;;;;;;;4983413;28;20395;-67
2023/02/10 11:58:58;;;;;;;55.90;21.27;;;;;;;;;;4986693;28;20387;-68
2023/02/10 12:01:31;;;;;;;57.90;23.17;;;;;;;;;;4987822;28;21412;-67
2023/02/10 12:03:57;;;;;;;67.07;28.98;;;;;;;;;;4986217;28;20321;-67
2023/02/10 12:06:49;;;;;;;70.75;24.33;;;;;;;;;;4985072;28;20565;-67
2023/02/10 12:09:16;;;;;;;55.63;25.08;;;;;;;;;;4962560;28;20395;-67
2023/02/10 12:11:45;;;;;;;66.10;27.00;;;;;;;;;;4986457;28;20045;-68
2023/02/10 12:14:25;;;;;;;73.20;28.58;;;;;;;;;;4990498;28;20113;-66
2023/02/10 12:17:03;;;;;;;75.93;27.58;;;;;;;;;;4985732;28;20073;-67
2023/02/10 12:19:51;;;;;;;65.50;21.75;;;;;;;;;;4984430;28;20030;-67
2023/02/10 12:22:23;;;;;;;71.45;26.30;;;;;;;;;;4958749;28;20113;-67
2023/02/10 12:25:00;;;;;;;30.45;12.40;;;;;;;;;;4988446;28;20057;-69
2023/02/10 12:27:46;;;;;;;66.28;25.25;;;;;;;;;;4987691;28;20112;-67
2023/02/10 12:30:16;;;;;;;62.42;24.15;;;;;;;;;;4983320;28;20132;-67
2023/02/10 12:32:42;;;;;;;67.20;24.95;;;;;;;;;;4986690;28;20033;-67
2023/02/10 12:35:10;;;;;;;62.58;26.58;;;;;;;;;;4989976;28;20022;-67
2023/02/10 12:37:47;;;;;;;67.85;27.05;;;;;;;;;;4987220;28;20089;-67
2023/02/10 12:40:31;;;;;;;50.47;19.83;;;;;;;;;;4988824;28;20022;-67
2023/02/10 12:43:06;;;;;;;57.50;21.52;;;;;;;;;;4990809;28;20054;-68
2023/02/10 12:45:34;;;;;;;34.47;11.60;;;;;;;;;;4985969;28;20018;-67
2023/02/10 12:48:18;;;;;;;68.95;25.95;;;;;;;;;;4990604;28;20037;-66
2023/02/10 12:50:47;;;;;;;60.47;24.65;;;;;;;;;;4989600;28;20243;-67
2023/02/10 12:53:15;;;;;;;63.63;26.73;;;;;;;;;;4990612;28;20031;-67
2023/02/10 12:55:48;;;;;;;66.00;25.63;;;;;;;;;;4987127;28;20018;-67
2023/02/10 12:58:16;;;;;;;62.72;25.73;;;;;;;;;;4986431;28;20373;-65
2023/02/10 13:00:50;;;;;;;42.38;17.42;;;;;;;;;;4988535;28;20918;-68
2023/02/10 13:03:18;;;;;;;70.43;25.13;;;;;;;;;;4989719;28;20234;-68
2023/02/10 13:05:54;;;;;;;63.15;25.45;;;;;;;;;;4994358;28;20136;-66
2023/02/10 13:08:48;;;;;;;40.00;18.13;;;;;;;;;;4992090;28;20112;-66
2023/02/10 13:11:18;;;;;;;63.95;26.52;;;;;;;;;;4969871;28;20074;-66
2023/02/10 13:13:45;;;;;;;54.55;21.92;;;;;;;;;;4973383;28;20030;-66
2023/02/10 13:16:18;;;;;;;58.75;23.95;;;;;;;;;;4989048;28;20490;-65
2023/02/10 13:18:49;;;;;;;59.17;27.10;;;;;;;;;;4987747;28;20037;-66
2023/02/10 13:21:20;;;;;;;68.15;26.20;;;;;;;;;;4991170;28;20045;-66
2023/02/10 13:23:52;;;;;;;70.22;28.60;;;;;;;;;;4985079;28;20045;-66
2023/02/10 13:26:38;;;;;;;67.68;25.75;;;;;;;;;;4983146;28;21584;-65
2023/02/10 13:29:03;;;;;;;68.47;25.42;;;;;;;;;;4989534;28;20025;-65
2023/02/10 13:31:31;;;;;;;51.22;21.88;;;;;;;;;;4992452;28;20018;-65
2023/02/10 13:34:02;;;;;;;46.22;19.25;;;;;;;;;;4990311;28;20097;-65
2023/02/10 13:36:28;;;;;;;52.08;21.05;;;;;;;;;;4986220;28;20026;-66
2023/02/10 13:39:00;;;;;;;46.47;18.63;;;;;;;;;;4994116;28;20038;-65
2023/02/10 13:41:41;;;;;;;42.95;15.85;;;;;;;;;;4992537;28;20502;-65
2023/02/10 13:44:15;;;;;;;35.28;14.48;;;;;;;;;;4990682;28;20107;-65
2023/02/10 13:46:41;;;;;;;47.30;17.45;;;;;;;;;;4989293;28;20046;-65
2023/02/10 13:49:15;;;;;;;37.67;19.17;;;;;;;;;;4988730;28;20019;-65
2023/02/10 13:51:40;;;;;;;41.53;18.17;;;;;;;;;;4991542;28;20420;-65
2023/02/10 13:54:05;;;;;;;42.63;18.58;;;;;;;;;;4994014;28;20475;-65
2023/02/10 13:56:32;;;;;;;48.22;19.45;;;;;;;;;;4987385;28;20464;-66
2023/02/10 13:59:04;;;;;;;47.70;19.75;;;;;;;;;;4990682;28;20395;-65
2023/02/10 14:01:46;;;;;;;50.30;21.58;;;;;;;;;;4985797;28;20770;-65
2023/02/10 14:04:17;;;;;;;44.67;19.58;;;;;;;;;;4988930;28;20037;-65
2023/02/10 14:06:43;;;;;;;52.72;19.10;;;;;;;;;;4986629;28;20045;-65
2023/02/10 14:09:27;;;;;;;49.78;19.45;;;;;;;;;;4986468;28;20018;-66
2023/02/10 14:11:52;;;;;;;41.28;19.08;;;;;;;;;;4988980;28;20471;-65
2023/02/10 14:14:19;;;;;;;49.72;24.23;;;;;;;;;;4979617;28;20022;-66
2023/02/10 14:16:45;;;;;;;43.95;19.92;;;;;;;;;;4984419;28;20022;-65
2023/02/10 14:19:27;;;;;;;38.72;14.20;;;;;;;;;;4988004;28;20021;-66
2023/02/10 14:21:54;;;;;;;35.00;16.00;;;;;;;;;;4983949;28;20072;-65